createdAt,value
2018-09-22T00:02:15.545Z,100756.36
2018-09-22T00:04:43.761Z,100754.72
2018-09-22T00:07:12.008Z,100756.52
2018-09-22T00:09:40.232Z,100751.73
2018-09-22T00:12:08.592Z,100768.22
2018-09-22T00:14:36.820Z,100762.28
2018-09-22T00:17:05.069Z,100761.74
2018-09-22T00:19:33.317Z,100755.37
2018-09-22T00:22:01.566Z,100769.19
2018-09-22T00:24:29.796Z,100771.47
2018-09-22T00:26:58.048Z,100773.63
2018-09-22T00:29:26.317Z,100769.84
2018-09-22T00:31:54.577Z,100780.38
2018-09-22T00:34:22.829Z,100782.91
2018-09-22T00:36:51.080Z,100786.42
2018-09-22T00:39:19.305Z,100789.04
2018-09-22T00:41:47.576Z,100800.64
2018-09-22T00:44:15.812Z,100801.88
2018-09-22T00:46:44.069Z,100797.08
2018-09-22T00:49:12.353Z,100799.22
2018-09-22T00:51:40.613Z,100804.86
2018-09-22T00:54:08.864Z,100803.16
2018-09-22T00:56:37.145Z,100797.51
2018-09-22T00:59:05.413Z,100812.01
2018-09-22T01:01:33.744Z,100807.38
2018-09-22T01:04:02.053Z,100806.61
2018-09-22T01:06:30.304Z,100806.66
2018-09-22T01:08:58.561Z,100816.55
2018-09-22T01:11:26.927Z,100810.89
2018-09-22T01:13:55.193Z,100830.58
2018-09-22T01:16:23.445Z,100834.13
2018-09-22T01:18:51.729Z,100832.45
2018-09-22T01:21:19.993Z,100841.58
2018-09-22T01:23:48.303Z,100845.84
2018-09-22T01:26:16.782Z,100853.53
2018-09-22T01:28:45.089Z,100850.89
2018-09-22T01:31:13.349Z,100852.45
2018-09-22T01:33:41.632Z,100860.87
2018-09-22T01:36:09.904Z,100856.52
2018-09-22T01:38:38.253Z,100846.90
2018-09-22T01:41:06.513Z,100871.16
2018-09-22T01:43:34.818Z,100869.61
2018-09-22T01:46:03.097Z,100874.17
2018-09-22T01:48:31.375Z,100878.88
2018-09-22T01:50:59.813Z,100876.03
2018-09-22T01:53:28.100Z,100877.73
2018-09-22T01:55:56.380Z,100886.70
2018-09-22T01:58:24.653Z,100883.23
2018-09-22T02:00:52.916Z,100889.27
2018-09-22T02:03:21.215Z,100891.33
2018-09-22T02:05:49.481Z,100903.67
2018-09-22T02:08:17.766Z,100902.47
2018-09-22T02:10:46.098Z,100907.59
2018-09-22T02:13:14.358Z,100917.03
2018-09-22T02:15:42.617Z,100915.34
2018-09-22T02:18:10.892Z,100917.56
2018-09-22T02:20:39.158Z,100918.93
2018-09-22T02:23:07.642Z,100923.42
2018-09-22T02:25:36.233Z,100929.02
2018-09-22T02:28:04.529Z,100933.80
2018-09-22T02:30:32.795Z,100928.95
2018-09-22T02:33:01.117Z,100931.87
2018-09-22T02:35:29.373Z,100933.95
2018-09-22T02:37:57.657Z,100940.98
2018-09-22T02:40:25.928Z,100944.12
2018-09-22T02:42:54.197Z,100959.17
2018-09-22T02:45:22.480Z,100952.54
2018-09-22T02:47:50.805Z,100961.71
2018-09-22T02:50:19.109Z,100965.22
2018-09-22T02:52:47.373Z,100965.94
2018-09-22T02:55:15.657Z,100963.72
2018-09-22T02:57:43.917Z,100971.44
2018-09-22T03:00:12.217Z,100971.88
2018-09-22T03:02:40.496Z,100981.30
2018-09-22T03:05:08.803Z,100986.33
2018-09-22T03:07:37.073Z,100988.80
2018-09-22T03:10:05.644Z,100990.27
2018-09-22T03:12:33.949Z,100988.84
2018-09-22T03:15:02.902Z,100986.36
2018-09-22T03:17:31.270Z,100992.38
2018-09-22T03:19:59.583Z,100994.62
2018-09-22T03:22:28.369Z,100990.13
2018-09-22T03:24:58.803Z,100989.81
2018-09-22T03:27:27.615Z,100989.39
2018-09-22T03:29:55.945Z,100994.59
2018-09-22T03:32:24.452Z,100991.20
2018-09-22T03:34:52.776Z,101005.33
2018-09-22T03:37:21.058Z,101003.63
2018-09-22T03:39:49.367Z,101008.20
2018-09-22T03:42:17.655Z,101000.91
2018-09-22T03:44:45.968Z,101002.73
2018-09-22T03:47:14.228Z,101002.66
2018-09-22T03:49:42.541Z,101001.38
2018-09-22T03:52:10.837Z,101005.09
2018-09-22T03:54:39.156Z,101005.56
2018-09-22T03:57:07.444Z,101009.91
2018-09-22T03:59:35.713Z,101010.63
2018-09-22T04:02:03.948Z,101015.43
2018-09-22T04:04:32.216Z,101027.02
2018-09-22T04:07:00.473Z,101027.17
2018-09-22T04:09:28.750Z,101021.80
2018-09-22T04:11:57.021Z,101022.66
2018-09-22T04:14:25.317Z,101027.39
2018-09-22T04:18:24.597Z,101023.41
2018-09-22T04:20:52.852Z,101027.37
2018-09-22T04:23:21.093Z,101034.11
2018-09-22T04:25:49.359Z,101040.91
2018-09-22T04:28:17.609Z,101034.22
2018-09-22T04:30:45.861Z,101030.88
2018-09-22T04:33:14.177Z,101041.78
2018-09-22T04:35:42.385Z,101042.65
2018-09-22T04:38:10.641Z,101046.19
2018-09-22T04:40:38.900Z,101051.76
2018-09-22T04:43:07.184Z,101055.64
2018-09-22T04:45:35.436Z,101048.70
2018-09-22T04:48:03.696Z,101051.56
2018-09-22T04:50:31.939Z,101050.67
2018-09-22T04:53:00.168Z,101060.68
2018-09-22T04:55:28.429Z,101065.42
2018-09-22T04:57:56.669Z,101067.98
2018-09-22T05:00:24.909Z,101082.00
2018-09-22T05:02:53.146Z,101080.33
2018-09-22T05:05:21.400Z,101077.97
2018-09-22T05:07:49.660Z,101088.37
2018-09-22T05:10:17.937Z,101085.72
2018-09-22T05:12:46.180Z,101100.61
2018-09-22T05:15:14.432Z,101100.19
2018-09-22T05:17:42.698Z,101109.13
2018-09-22T05:20:10.968Z,101113.26
2018-09-22T05:22:39.188Z,101119.16
2018-09-22T05:25:07.484Z,101121.72
2018-09-22T05:27:35.721Z,101133.95
2018-09-22T05:30:04.014Z,101139.56
2018-09-22T05:32:32.256Z,101144.22
2018-09-22T05:35:00.521Z,101138.52
2018-09-22T05:37:28.767Z,101134.31
2018-09-22T05:39:57.037Z,101135.77
2018-09-22T05:42:25.276Z,101137.20
2018-09-22T05:44:53.513Z,101144.37
2018-09-22T05:47:21.789Z,101145.59
2018-09-22T05:49:50.035Z,101147.02
2018-09-22T05:52:18.294Z,101137.62
2018-09-22T05:54:46.556Z,101144.18
2018-09-22T05:57:14.800Z,101148.94
2018-09-22T05:59:43.031Z,101162.00
2018-09-22T06:02:11.294Z,101166.05
2018-09-22T06:04:39.546Z,101155.72
2018-09-22T06:07:07.826Z,101152.98
2018-09-22T06:09:36.110Z,101155.28
2018-09-22T06:12:04.365Z,101167.27
2018-09-22T06:14:32.600Z,101176.58
2018-09-22T06:17:00.864Z,101171.32
2018-09-22T06:19:29.111Z,101169.03
2018-09-22T06:21:57.360Z,101176.92
2018-09-22T06:24:25.629Z,101178.23
2018-09-22T06:26:53.888Z,101178.69
2018-09-22T06:29:22.123Z,101176.58
2018-09-22T06:31:50.369Z,101185.16
2018-09-22T06:34:18.601Z,101178.00
2018-09-22T06:36:46.869Z,101175.14
2018-09-22T06:39:15.705Z,101179.02
2018-09-22T06:41:43.979Z,101177.41
2018-09-22T06:44:12.440Z,101187.72
2018-09-22T06:46:40.765Z,101181.08
2018-09-22T06:49:09.005Z,101184.58
2018-09-22T06:51:37.284Z,101185.02
2018-09-22T06:54:05.550Z,101191.58
2018-09-22T06:56:33.878Z,101190.61
2018-09-22T06:59:02.167Z,101187.08
2018-09-22T07:01:30.442Z,101199.16
2018-09-22T07:03:58.685Z,101194.19
2018-09-22T07:06:27.023Z,101202.03
2018-09-22T07:08:55.233Z,101205.42
2018-09-22T07:11:23.518Z,101197.93
2018-09-22T07:13:51.853Z,101206.42
2018-09-22T07:16:20.061Z,101205.58
2018-09-22T07:18:48.301Z,101203.56
2018-09-22T07:21:16.702Z,101208.78
2018-09-22T07:23:44.948Z,101197.82
2018-09-22T07:26:13.226Z,101203.61
2018-09-22T07:28:41.496Z,101200.72
2018-09-22T07:31:09.799Z,101195.79
2018-09-22T07:33:38.085Z,101186.41
2018-09-22T07:36:06.376Z,101191.20
2018-09-22T07:38:34.682Z,101188.89
2018-09-22T07:41:03.030Z,101197.14
2018-09-22T07:43:31.309Z,101194.21
2018-09-22T07:45:59.590Z,101199.89
2018-09-22T07:48:27.939Z,101207.63
2018-09-22T07:50:56.234Z,101215.45
2018-09-22T07:53:24.681Z,101213.16
2018-09-22T07:55:53.526Z,101217.11
2018-09-22T07:58:21.837Z,101223.63
2018-09-22T08:00:50.125Z,101222.64
2018-09-22T08:03:18.450Z,101229.62
2018-09-22T08:05:46.732Z,101228.34
2018-09-22T08:08:15.025Z,101228.36
2018-09-22T08:10:43.332Z,101226.73
2018-09-22T08:13:11.638Z,101229.70
2018-09-22T08:15:39.938Z,101231.03
2018-09-22T08:18:08.229Z,101227.98
2018-09-22T08:20:36.502Z,101226.25
2018-09-22T08:23:04.789Z,101234.49
2018-09-22T08:25:33.070Z,101225.78
2018-09-22T08:28:01.345Z,101227.20
2018-09-22T08:30:29.610Z,101239.70
2018-09-22T08:32:57.884Z,101241.80
2018-09-22T08:35:26.157Z,101244.57
2018-09-22T08:37:54.485Z,101240.89
2018-09-22T08:40:22.732Z,101253.00
2018-09-22T08:42:50.989Z,101256.11
2018-09-22T08:45:19.221Z,101257.95
2018-09-22T08:47:47.511Z,101251.11
2018-09-22T08:50:15.765Z,101254.45
2018-09-22T08:52:44.052Z,101260.52
2018-09-22T08:55:12.329Z,101251.58
2018-09-22T08:57:40.616Z,101255.89
2018-09-22T09:00:09.093Z,101257.14
2018-09-22T09:02:37.424Z,101249.42
2018-09-22T09:05:05.796Z,101250.79
2018-09-22T09:07:34.056Z,101241.73
2018-09-22T09:10:02.326Z,101254.61
2018-09-22T09:12:30.623Z,101251.22
2018-09-22T09:14:58.877Z,101259.81
2018-09-22T09:17:27.154Z,101258.97
2018-09-22T09:19:55.430Z,101256.84
2018-09-22T09:22:23.793Z,101257.68
2018-09-22T09:24:52.695Z,101255.55
2018-09-22T09:27:21.596Z,101246.94
2018-09-22T09:29:50.491Z,101248.66
2018-09-22T09:32:19.600Z,101250.39
2018-09-22T09:34:48.943Z,101250.41
2018-09-22T09:37:17.779Z,101237.48
2018-09-22T09:39:46.069Z,101235.38
2018-09-22T09:42:14.372Z,101231.45
2018-09-22T09:44:42.986Z,101221.58
2018-09-22T09:47:11.266Z,101224.11
2018-09-22T09:49:39.640Z,101233.17
2018-09-22T09:52:08.090Z,101232.32
2018-09-22T09:54:36.408Z,101221.58
2018-09-22T09:57:04.732Z,101223.73
2018-09-22T09:59:33.001Z,101218.98
2018-09-22T10:02:01.259Z,101214.72
2018-09-22T10:04:29.608Z,101217.28
2018-09-22T10:06:57.770Z,101212.12
2018-09-22T10:09:26.053Z,101221.16
2018-09-22T10:11:54.404Z,101218.17
2018-09-22T10:14:22.705Z,101216.83
2018-09-22T10:16:50.980Z,101219.84
2018-09-22T10:19:19.425Z,101212.92
2018-09-22T10:21:47.716Z,101209.02
2018-09-22T10:24:16.029Z,101214.66
2018-09-22T10:26:44.289Z,101212.03
2018-09-22T10:29:13.064Z,101206.48
2018-09-22T10:31:41.309Z,101206.44
2018-09-22T10:34:09.601Z,101198.64
2018-09-22T10:36:37.844Z,101195.62
2018-09-22T10:39:07.679Z,101196.89
2018-09-22T10:41:36.004Z,101197.83
2018-09-22T10:44:04.269Z,101203.34
2018-09-22T10:46:32.525Z,101197.84
2018-09-22T10:49:01.789Z,101197.38
2018-09-22T10:51:30.045Z,101188.69
2018-09-22T10:53:58.372Z,101191.26
2018-09-22T10:56:26.613Z,101197.28
2018-09-22T10:58:54.944Z,101197.69
2018-09-22T11:01:24.220Z,101199.09
2018-09-22T11:03:52.601Z,101196.08
2018-09-22T11:06:20.849Z,101202.06
2018-09-22T11:08:49.324Z,101213.34
2018-09-22T11:11:17.574Z,101204.69
2018-09-22T11:13:45.817Z,101204.61
2018-09-22T11:16:14.137Z,101198.05
2018-09-22T11:18:42.457Z,101198.12
2018-09-22T11:21:10.701Z,101197.59
2018-09-22T11:23:38.969Z,101198.42
2018-09-22T11:26:07.269Z,101197.65
2018-09-22T11:28:36.136Z,101186.98
2018-09-22T11:31:04.392Z,101191.80
2018-09-22T11:33:32.633Z,101190.05
2018-09-22T11:36:00.977Z,101191.66
2018-09-22T11:38:29.253Z,101191.70
2018-09-22T11:40:57.557Z,101198.97
2018-09-22T11:43:25.900Z,101198.12
2018-09-22T11:45:54.159Z,101205.86
2018-09-22T11:48:22.446Z,101205.40
2018-09-22T11:50:50.704Z,101199.31
2018-09-22T11:53:19.020Z,101196.66
2018-09-22T11:55:48.096Z,101199.34
2018-09-22T11:58:16.363Z,101187.24
2018-09-22T12:00:44.678Z,101195.41
2018-09-22T12:03:19.364Z,101179.17
2018-09-22T12:05:47.639Z,101169.11
2018-09-22T12:08:15.877Z,101168.64
2018-09-22T12:10:44.195Z,101164.44
2018-09-22T12:13:12.445Z,101164.69
2018-09-22T12:15:40.732Z,101171.47
2018-09-22T12:18:09.214Z,101163.83
2018-09-22T12:20:37.464Z,101167.52
2018-09-22T12:23:05.907Z,101172.84
2018-09-22T12:25:34.173Z,101170.33
2018-09-22T12:28:02.436Z,101169.86
2018-09-22T12:30:33.157Z,101177.62
2018-09-22T12:33:01.487Z,101187.90
2018-09-22T12:35:29.757Z,101181.90
2018-09-22T12:37:58.042Z,101183.23
2018-09-22T12:40:26.352Z,101178.37
2018-09-22T12:42:54.577Z,101158.61
2018-09-22T12:45:22.858Z,101167.20
2018-09-22T12:47:51.108Z,101171.12
2018-09-22T12:50:19.461Z,101150.53
2018-09-22T12:52:47.715Z,101152.80
2018-09-22T12:55:15.966Z,101160.88
2018-09-22T12:57:44.210Z,101159.00
2018-09-22T13:00:12.574Z,101171.98
2018-09-22T13:02:40.864Z,101154.18
2018-09-22T13:05:09.339Z,101137.83
2018-09-22T13:07:37.576Z,101135.67
2018-09-22T13:10:05.933Z,101129.22
2018-09-22T13:12:34.257Z,101124.59
2018-09-22T13:15:02.541Z,101129.45
2018-09-22T13:17:30.817Z,101125.41
2018-09-22T13:19:59.118Z,101136.89
2018-09-22T13:22:27.424Z,101140.84
2018-09-22T13:24:55.680Z,101144.39
2018-09-22T13:27:23.970Z,101146.11
2018-09-22T13:29:52.936Z,101142.73
2018-09-22T13:32:21.185Z,101139.09
2018-09-22T13:34:49.418Z,101122.22
2018-09-22T13:37:17.721Z,101111.05
2018-09-22T13:39:45.945Z,101108.52
2018-09-22T13:42:14.197Z,101104.30
2018-09-22T13:44:42.444Z,101109.50
2018-09-22T13:47:10.717Z,101117.95
2018-09-22T13:49:39.124Z,101113.11
2018-09-22T13:52:07.398Z,101112.64
2018-09-22T13:54:35.675Z,101110.84
2018-09-22T13:57:03.969Z,101119.11
2018-09-22T13:59:32.353Z,101111.75
2018-09-22T14:02:00.660Z,101104.45
2018-09-22T14:04:28.925Z,101110.53
2018-09-22T14:06:57.439Z,101111.74
2018-09-22T14:09:25.779Z,101109.98
2018-09-22T14:11:54.137Z,101104.80
2018-09-22T14:14:22.424Z,101112.52
2018-09-22T14:16:50.792Z,101114.98
2018-09-22T14:19:19.041Z,101107.77
2018-09-22T14:21:47.391Z,101112.68
2018-09-22T14:24:15.766Z,101118.16
2018-09-22T14:26:44.057Z,101155.91
2018-09-22T14:29:12.376Z,101157.49
2018-09-22T14:31:40.653Z,101181.11
2018-09-22T14:34:09.008Z,101171.64
2018-09-22T14:36:37.345Z,101176.35
2018-09-22T14:39:06.263Z,101185.69
2018-09-22T14:41:34.580Z,101197.56
2018-09-22T14:44:02.878Z,101194.58
2018-09-22T14:46:31.173Z,101201.45
2018-09-22T14:48:59.602Z,101193.44
2018-09-22T14:51:28.097Z,101195.05
2018-09-22T14:53:57.048Z,101199.92
2018-09-22T14:56:25.416Z,101210.67
2018-09-22T14:58:53.744Z,101211.95
2018-09-22T15:01:21.993Z,101210.42
2018-09-22T15:03:50.300Z,101191.58
2018-09-22T15:06:18.632Z,101205.74
2018-09-22T15:08:46.933Z,101225.03
2018-09-22T15:11:15.229Z,101232.41
2018-09-22T15:13:43.529Z,101229.23
2018-09-22T15:16:11.908Z,101214.81
2018-09-22T15:18:40.249Z,101204.36
2018-09-22T15:21:08.505Z,101205.98
2018-09-22T15:23:36.818Z,101208.83
2018-09-22T15:26:05.066Z,101205.89
2018-09-22T15:28:33.814Z,101194.28
2018-09-22T15:31:02.054Z,101182.73
2018-09-22T15:33:30.336Z,101163.31
2018-09-22T15:35:58.574Z,101158.67
2018-09-22T15:38:26.882Z,101156.19
2018-09-22T15:40:55.188Z,101154.17
2018-09-22T15:43:23.603Z,101165.37
2018-09-22T15:45:51.839Z,101153.44
2018-09-22T15:48:20.194Z,101181.86
2018-09-22T15:50:48.561Z,101190.88
2018-09-22T15:53:16.833Z,101184.30
2018-09-22T15:55:45.178Z,101010.78
2018-09-22T15:58:13.817Z,101161.91
2018-09-22T16:00:42.423Z,101162.63
2018-09-22T16:03:10.893Z,101168.47
2018-09-22T16:05:39.953Z,101161.25
2018-09-22T16:08:08.461Z,101160.47
2018-09-22T16:10:37.301Z,101143.97
2018-09-22T16:13:05.610Z,101131.28
2018-09-22T16:15:34.125Z,101038.38
2018-09-22T16:18:02.761Z,101119.36
2018-09-22T16:20:31.037Z,101128.84
2018-09-22T16:22:59.294Z,101160.19
2018-09-22T16:25:28.153Z,101155.41
2018-09-22T16:27:56.409Z,101168.47
2018-09-22T16:30:24.645Z,101178.70
2018-09-22T16:32:52.894Z,101173.85
2018-09-22T16:35:21.130Z,101171.53
2018-09-22T16:37:49.385Z,101175.72
2018-09-22T16:40:17.855Z,101186.47
2018-09-22T16:42:46.454Z,101189.48
2018-09-22T16:45:15.077Z,101172.97
2018-09-22T16:47:43.405Z,101197.66
2018-09-22T16:50:11.768Z,101186.69
2018-09-22T16:52:40.067Z,101186.22
2018-09-22T16:55:08.310Z,101197.91
2018-09-22T16:57:38.476Z,101198.41
2018-09-22T17:00:07.065Z,101193.78
2018-09-22T17:02:35.354Z,101186.47
2018-09-22T17:05:04.530Z,101185.31
2018-09-22T17:07:35.600Z,101190.45
2018-09-22T17:10:04.626Z,101184.39
2018-09-22T17:12:33.519Z,101189.73
2018-09-22T17:15:01.781Z,101190.76
2018-09-22T17:17:30.070Z,101189.14
2018-09-22T17:19:58.313Z,101190.55
2018-09-22T17:22:26.688Z,101185.61
2018-09-22T17:24:54.929Z,101186.20
2018-09-22T17:27:24.001Z,101195.81
2018-09-22T17:29:52.373Z,101194.52
2018-09-22T17:32:20.668Z,101208.20
2018-09-22T17:34:48.974Z,101203.06
2018-09-22T17:37:17.241Z,101201.32
2018-09-22T17:39:45.501Z,101195.26
2018-09-22T17:42:13.821Z,101192.30
2018-09-22T17:44:42.105Z,101192.28
2018-09-22T17:47:11.615Z,101192.74
2018-09-22T17:49:39.872Z,101186.27
2018-09-22T17:52:08.101Z,101184.50
2018-09-22T17:54:36.393Z,101183.28
2018-09-22T17:57:04.620Z,101172.98
2018-09-22T17:59:32.914Z,101187.13
2018-09-22T18:02:01.319Z,101187.22
2018-09-22T18:04:29.617Z,101190.19
2018-09-22T18:06:57.881Z,101191.85
2018-09-22T18:09:26.119Z,101187.62
2018-09-22T18:11:54.392Z,101201.36
2018-09-22T18:14:22.652Z,101201.39
2018-09-22T18:16:50.949Z,101193.26
2018-09-22T18:19:19.140Z,101196.30
2018-09-22T18:21:47.385Z,101194.98
2018-09-22T18:24:15.638Z,101180.77
2018-09-22T18:26:43.875Z,101184.59
2018-09-22T18:29:12.241Z,101186.75
2018-09-22T18:31:40.482Z,101177.58
2018-09-22T18:34:08.828Z,101180.85
2018-09-22T18:36:37.073Z,101190.73
2018-09-22T18:39:07.141Z,101196.83
2018-09-22T18:41:35.832Z,101201.51
2018-09-22T18:44:04.145Z,101193.70
2018-09-22T18:46:32.385Z,101197.41
2018-09-22T18:49:00.656Z,101201.31
2018-09-22T18:51:28.888Z,101198.05
2018-09-22T18:53:58.170Z,101196.34
2018-09-22T18:56:26.437Z,101192.38
2018-09-22T18:58:54.705Z,101193.68
2018-09-22T19:01:22.945Z,101188.00
2018-09-22T19:03:51.200Z,101184.00
2018-09-22T19:06:19.424Z,101190.06
2018-09-22T19:08:47.666Z,101195.23
2018-09-22T19:11:15.926Z,101203.81
2018-09-22T19:13:50.453Z,101202.97
2018-09-22T19:16:21.941Z,101205.12
2018-09-22T19:18:53.505Z,101199.88
2018-09-22T19:21:25.153Z,101197.11
2018-09-22T19:23:59.493Z,101205.73
2018-09-22T19:26:32.030Z,101201.29
2018-09-22T19:29:18.664Z,101196.08
2018-09-22T19:31:50.497Z,101210.16
2018-09-22T19:34:21.960Z,101213.27
2018-09-22T19:36:54.238Z,101210.02
2018-09-22T19:39:28.910Z,101216.00
2018-09-22T19:42:07.050Z,101215.95
2018-09-22T19:44:44.145Z,101215.00
2018-09-22T19:48:16.461Z,101207.17
2018-09-22T19:50:48.249Z,101209.66
2018-09-22T19:53:16.561Z,101208.45
2018-09-22T19:55:44.814Z,101211.56
2018-09-22T19:58:13.032Z,101201.31
2018-09-22T20:00:41.285Z,101206.30
2018-09-22T20:03:10.501Z,101213.03
2018-09-22T20:05:39.186Z,101196.29
2018-09-22T20:08:07.398Z,101199.22
2018-09-22T20:10:35.925Z,101192.78
2018-09-22T20:13:04.380Z,101205.89
2018-09-22T20:15:32.877Z,101201.11
2018-09-22T20:18:01.157Z,101191.20
2018-09-22T20:20:29.433Z,101198.37
2018-09-22T20:22:58.250Z,101190.64
2018-09-22T20:25:26.547Z,101187.56
2018-09-22T20:27:54.748Z,101192.44
2018-09-22T20:30:23.068Z,101193.27
2018-09-22T20:32:52.065Z,101188.70
2018-09-22T20:35:21.039Z,101184.82
2018-09-22T20:37:50.076Z,101180.30
2018-09-22T20:40:18.957Z,101180.75
2018-09-22T20:42:47.647Z,101183.37
2018-09-22T20:45:16.345Z,101184.81
2018-09-22T20:47:45.364Z,101187.88
2018-09-22T20:50:14.355Z,101190.89
2018-09-22T20:52:43.283Z,101194.28
2018-09-22T20:55:12.178Z,101184.05
2018-09-22T20:57:41.222Z,101187.88
2018-09-22T21:00:10.927Z,101183.23
2018-09-22T21:02:40.692Z,101177.23
2018-09-22T21:05:09.606Z,101184.52
2018-09-22T21:07:39.219Z,101181.61
2018-09-22T21:10:08.102Z,101190.60
2018-09-22T21:12:37.211Z,101194.01
2018-09-22T21:15:06.207Z,101184.95
2018-09-22T21:17:35.153Z,101178.55
2018-09-22T21:20:04.141Z,101170.84
2018-09-22T21:22:34.028Z,101175.83
2018-09-22T21:25:03.109Z,101169.16
2018-09-22T21:27:32.214Z,101154.64
2018-09-22T21:30:01.103Z,101152.23
2018-09-22T21:32:30.797Z,101158.63
2018-09-22T21:34:59.562Z,101156.36
2018-09-22T21:37:29.279Z,101153.64
2018-09-22T21:39:58.164Z,101153.73
2018-09-22T21:42:27.842Z,101152.81
2018-09-22T21:44:56.831Z,101156.56
2018-09-22T21:47:25.847Z,101153.26
2018-09-22T21:49:54.930Z,101146.36
2018-09-22T21:52:24.021Z,101154.77
2018-09-22T21:54:52.975Z,101153.81
2018-09-22T21:57:21.789Z,101144.80
2018-09-22T21:59:50.665Z,101138.33
2018-09-22T22:02:20.297Z,101144.67
2018-09-22T22:04:49.346Z,101140.77
2018-09-22T22:07:18.221Z,101141.70
2018-09-22T22:09:47.239Z,101136.09
2018-09-22T22:12:16.683Z,101134.29
2018-09-22T22:14:45.690Z,101140.25
2018-09-22T22:17:14.680Z,101143.23
2018-09-22T22:19:44.332Z,101138.10
2018-09-22T22:22:13.748Z,101139.80
2018-09-22T22:24:42.625Z,101143.45
2018-09-22T22:27:11.545Z,101136.70
2018-09-22T22:29:39.777Z,101133.89
2018-09-22T22:34:53.133Z,101132.81
2018-09-22T22:37:21.396Z,101131.02
2018-09-22T22:39:49.641Z,101137.84
2018-09-22T22:42:17.980Z,101130.61
2018-09-22T22:44:46.230Z,101130.51
2018-09-22T22:47:14.495Z,101127.95
2018-09-22T22:49:42.770Z,101132.66
2018-09-22T22:52:11.052Z,101134.00
2018-09-22T22:54:39.389Z,101135.73
2018-09-22T22:57:07.652Z,101137.98
2018-09-22T22:59:35.915Z,101135.53
2018-09-22T23:02:04.216Z,101128.05
2018-09-22T23:04:32.541Z,101126.67
2018-09-22T23:07:00.810Z,101126.20
2018-09-22T23:09:29.083Z,101113.88
2018-09-22T23:11:57.354Z,101114.69
2018-09-22T23:14:25.640Z,101113.02
2018-09-22T23:16:53.889Z,101113.52
2018-09-22T23:19:22.155Z,101111.48
2018-09-22T23:21:50.433Z,101108.02
2018-09-22T23:24:18.714Z,101110.15
2018-09-22T23:26:46.958Z,101106.69
2018-09-22T23:29:15.217Z,101106.74
2018-09-22T23:31:43.514Z,101117.37
2018-09-22T23:34:11.778Z,101118.17
2018-09-22T23:36:40.016Z,101106.23
2018-09-22T23:39:09.465Z,101111.02
2018-09-22T23:41:37.712Z,101099.05
2018-09-22T23:44:06.204Z,101098.20
2018-09-22T23:46:34.476Z,101093.55
2018-09-22T23:49:02.769Z,101092.72
2018-09-22T23:51:31.010Z,101084.05
2018-09-22T23:53:59.260Z,101100.25
2018-09-22T23:56:27.988Z,101095.20
2018-09-22T23:58:56.281Z,101098.19
